Terminal Aerodrome Forecast
Issued by NWS

Home | Current Version | Previous Version | Text Only | Print | Product List | Glossary On
Versions: 1 2 3 4 5 6 7 8 9 10 11 12
000
FTUS45 KVEF 190520
TAFHND
TAF
KHND 190520Z 1906/2006 19015G22KT P6SM SCT150 BKN250
     FM190900 22015G25KT P6SM SCT150 SCT250
     FM191500 24019G28KT P6SM SCT150 SCT250
     FM192100 28015G24KT P6SM FEW080 SCT120
     FM200300 27011KT P6SM FEW080 SCT120=

USA.gov is the U.S. government's official web portal to all federal, state and local government web resources and services.